Cedar Falls, North Carolina
Current Conditions -  °F | °C
As of 1:15 AM on Monday 22 Dec 2014 (Local Time) from KHBI Reporting Station
Overcast Overcast  
Wind Chill:   Ceiling: 3200
Heat Index:   Visibility: 10mi
Dew Point:   Wind: 3mph
Humidity: 72%   Direction: 20°NNE
Pressure: 30.21"   Gusts: NA
Location:  35.75°N, 79.73°W
Report Text: KHBI 220615Z AUTO 02003KT 10SM OVC032 06/01 A3021 RMK AO2 T00560010
Loading
Personal Weather Stations






























Interactive Weather Map New forecast layout! Learn more

10-Day Weather Forecast

Advertisements
Track Severe Weather on mobile